Lister — ZDHW6 — position and weather

sailwx.info

Track history (hours):
 
Tides and Currents Weather Stations Pressure Air Temp Water Temp Dewpoint Dewpoint Depression Visibility Wind Speed Wind Dir Waves Ship Positions

Lister

Last reported at 2014-Aug-30 23:24 UTC. Time now 2014-Aug-31 02:37 UTC.
Position N 57°23' E 018°11'.

Length 89 m; draft 4 m.

Type: Ship. MMSI: 236381000.

Date/timePositionNaut miles runAvg speedWind from/ knotsBaromVisibWave heightAir tempDewpointWater temp
2014-Aug-30 23:24N 57°23' E 018°11'28 3.5
2014-Aug-30 15:13N 57°50' E 017°51'5111.0
2014-Aug-30 10:33N 58°37' E 017°14'1211.6
2014-Aug-30 09:33N 58°37' E 016°51'1111.4
2014-Aug-30 08:33N 58°39' E 016°30'5 5.1
2014-Aug-30 07:32N 58°38' E 016°20'0 0.0
2014-Aug-30 06:32N 58°38' E 016°20'0 0.0
2014-Aug-30 05:32N 58°38' E 016°20'0 0.0
2014-Aug-30 04:32N 58°38' E 016°20'0 0.0
2014-Aug-30 03:14N 58°38' E 016°20'0 0.0
2014-Aug-30 02:32N 58°38' E 016°20'0 0.0
2014-Aug-30 01:32N 58°38' E 016°20'0 0.0
2014-Aug-30 00:32N 58°38' E 016°20'0 0.0
2014-Aug-29 23:32N 58°38' E 016°20'0 0.0
2014-Aug-29 22:32N 58°38' E 016°20'0 0.0
2014-Aug-29 21:32N 58°38' E 016°20'0 0.0
2014-Aug-29 20:32N 58°38' E 016°20'0 0.0
2014-Aug-29 19:32N 58°38' E 016°20'0 0.0
2014-Aug-29 18:32N 58°38' E 016°20'0 0.0
2014-Aug-29 17:32N 58°38' E 016°20'0 0.0
2014-Aug-29 16:32N 58°38' E 016°20'1 1.4
2014-Aug-29 15:31N 58°39' E 016°22'0 0.0
2014-Aug-29 14:31N 58°39' E 016°22'0 0.0
2014-Aug-29 13:31N 58°39' E 016°22'0 0.0
2014-Aug-29 12:31N 58°39' E 016°22'0 0.0
2014-Aug-29 11:31N 58°39' E 016°22'0 0.0
2014-Aug-29 10:31N 58°39' E 016°22'0 0.0
2014-Aug-29 09:31N 58°39' E 016°22'0 0.0
2014-Aug-29 08:28N 58°39' E 016°22'0 0.0
2014-Aug-29 07:31N 58°39' E 016°22'0 0.0
2014-Aug-29 06:31N 58°39' E 016°22'0 0.0
2014-Aug-29 05:31N 58°39' E 016°22'0 0.0
2014-Aug-29 04:28N 58°39' E 016°22'0 0.0
2014-Aug-29 03:31N 58°39' E 016°22'0 0.0
2014-Aug-29 02:31N 58°39' E 016°22'0 0.0
2014-Aug-29 01:31N 58°39' E 016°22'0 0.0
2014-Aug-29 00:28N 58°39' E 016°22'0 0.0
2014-Aug-28 23:31N 58°39' E 016°22'0 0.0
2014-Aug-28 22:31N 58°39' E 016°22'0 0.0
2014-Aug-28 21:31N 58°39' E 016°22'0 0.0
2014-Aug-28 20:31N 58°39' E 016°22'0 0.0
2014-Aug-28 19:28N 58°39' E 016°22'0 0.0
2014-Aug-28 18:31N 58°39' E 016°22'0 0.0
2014-Aug-28 17:31N 58°39' E 016°22'0 0.0
2014-Aug-28 16:31N 58°39' E 016°22'0 0.0
2014-Aug-28 15:31N 58°39' E 016°22'0 0.1
2014-Aug-28 14:33N 58°39' E 016°23'6 6.2
2014-Aug-28 13:34N 58°38' E 016°34'9 8.6
2014-Aug-28 12:33N 58°37' E 016°51'9 8.5
2014-Aug-28 11:33N 58°38' E 017°07'1 0.0
2014-Aug-27 08:34N 58°37' E 017°05'1111.3
2014-Aug-27 07:34N 58°37' E 016°43'1110.8
2014-Aug-27 06:34N 58°39' E 016°23'6 2.5
2014-Aug-27 04:16N 58°36' E 016°13'0 0.0
2014-Aug-27 03:04N 58°36' E 016°13'0 0.0
2014-Aug-27 02:28N 58°36' E 016°13'0 0.0
2014-Aug-26 23:28N 58°36' E 016°13'0 0.0
2014-Aug-26 20:16N 58°36' E 016°13'0 0.0
2014-Aug-26 19:16N 58°36' E 016°13'0 0.1
2014-Aug-26 18:16N 58°36' E 016°13'0 0.0
2014-Aug-26 17:16N 58°36' E 016°13'0 0.0
2014-Aug-26 16:16N 58°36' E 016°13'0 0.0
2014-Aug-26 15:28N 58°36' E 016°13'0 0.0
2014-Aug-26 14:28N 58°36' E 016°13'0 0.0
2014-Aug-26 12:28N 58°36' E 016°13'0 0.0
2014-Aug-26 11:28N 58°36' E 016°13'0 0.0
2014-Aug-26 10:28N 58°36' E 016°13'0 0.0
2014-Aug-26 09:28N 58°36' E 016°13'0 0.0
2014-Aug-26 08:28N 58°36' E 016°13'0 0.0
2014-Aug-26 06:28N 58°36' E 016°13'0 0.0
2014-Aug-26 05:16N 58°36' E 016°13'0 0.0
2014-Aug-26 04:22N 58°36' E 016°13'0 0.0
2014-Aug-26 03:28N 58°36' E 016°13'0 0.0
2014-Aug-26 02:28N 58°36' E 016°13'0 0.0
2014-Aug-26 01:28N 58°36' E 016°13'0 0.0
2014-Aug-26 00:17N 58°36' E 016°13'0 0.0
2014-Aug-25 23:32N 58°36' E 016°13'3 3.5
2014-Aug-25 22:33N 58°38' E 016°18'10 9.8
2014-Aug-25 21:33N 58°38' E 016°37'1010.3
2014-Aug-25 20:33N 58°36' E 016°56'1010.3
2014-Aug-25 19:33N 58°37' E 017°16'79 2.6
2014-Aug-24 13:10N 57°23' E 018°08'7 8.8
2014-Aug-24 12:23N 57°29' E 018°01'72 8.1
2014-Aug-24 03:30N 58°37' E 017°16'8 8.8
2014-Aug-24 02:33N 58°37' E 016°60'9 9.0
2014-Aug-24 01:33N 58°38' E 016°43'9 9.1
2014-Aug-24 00:33N 58°39' E 016°25'3 0.1
2014-Aug-23 03:30N 58°38' E 016°20'0 0.0
2014-Aug-23 02:30N 58°38' E 016°20'0 0.0
2014-Aug-23 01:33N 58°38' E 016°20'0 0.4
2014-Aug-23 00:33N 58°38' E 016°20'9 8.7
2014-Aug-22 23:33N 58°38' E 016°37'1010.4
2014-Aug-22 22:33N 58°36' E 016°57'1010.2
2014-Aug-22 21:33N 58°37' E 017°16'61 2.1
2014-Aug-21 16:27N 57°36' E 017°25'1010.8
2014-Aug-21 15:33N 57°27' E 017°21'1110.6
2014-Aug-21 14:33N 57°16' E 017°17'1110.7
2014-Aug-21 13:33N 57°06' E 017°14'1110.6
2014-Aug-21 12:33N 56°55' E 017°09'90 9.9
2014-Aug-21 03:32N 55°42' E 015°38'1310.7
2014-Aug-21 02:17N 55°35' E 015°17'810.6
2014-Aug-21 01:32N 55°31' E 015°05'1110.7
2014-Aug-21 00:33N 55°26' E 014°49'1010.3
2014-Aug-20 23:33N 55°20' E 014°34'  
Track history (hours):
 
Tides and Currents Weather Stations Pressure Air Temp Water Temp Dewpoint Dewpoint Depression Visibility Wind Speed Wind Dir Waves Ship Positions

Lister

Last reported at 2014-Aug-30 23:24 UTC. Time now 2014-Aug-31 02:37 UTC.
Position N 57°23' E 018°11'.

Length 89 m; draft 4 m.

Type: Ship. MMSI: 236381000.

Date/timePositionNaut miles runAvg speedWind from/ knotsBaromVisibWave heightAir tempDewpointWater temp
2014-Aug-30 23:24N 57°23' E 018°11'28 3.5
2014-Aug-30 15:13N 57°50' E 017°51'5111.0
2014-Aug-30 10:33N 58°37' E 017°14'1211.6
2014-Aug-30 09:33N 58°37' E 016°51'1111.4
2014-Aug-30 08:33N 58°39' E 016°30'5 5.1
2014-Aug-30 07:32N 58°38' E 016°20'0 0.0
2014-Aug-30 06:32N 58°38' E 016°20'0 0.0
2014-Aug-30 05:32N 58°38' E 016°20'0 0.0
2014-Aug-30 04:32N 58°38' E 016°20'0 0.0
2014-Aug-30 03:14N 58°38' E 016°20'0 0.0
2014-Aug-30 02:32N 58°38' E 016°20'0 0.0
2014-Aug-30 01:32N 58°38' E 016°20'0 0.0
2014-Aug-30 00:32N 58°38' E 016°20'0 0.0
2014-Aug-29 23:32N 58°38' E 016°20'0 0.0
2014-Aug-29 22:32N 58°38' E 016°20'0 0.0
2014-Aug-29 21:32N 58°38' E 016°20'0 0.0
2014-Aug-29 20:32N 58°38' E 016°20'0 0.0
2014-Aug-29 19:32N 58°38' E 016°20'0 0.0
2014-Aug-29 18:32N 58°38' E 016°20'0 0.0
2014-Aug-29 17:32N 58°38' E 016°20'0 0.0
2014-Aug-29 16:32N 58°38' E 016°20'1 1.4
2014-Aug-29 15:31N 58°39' E 016°22'0 0.0
2014-Aug-29 14:31N 58°39' E 016°22'0 0.0
2014-Aug-29 13:31N 58°39' E 016°22'0 0.0
2014-Aug-29 12:31N 58°39' E 016°22'0 0.0
2014-Aug-29 11:31N 58°39' E 016°22'0 0.0
2014-Aug-29 10:31N 58°39' E 016°22'0 0.0
2014-Aug-29 09:31N 58°39' E 016°22'0 0.0
2014-Aug-29 08:28N 58°39' E 016°22'0 0.0
2014-Aug-29 07:31N 58°39' E 016°22'0 0.0
2014-Aug-29 06:31N 58°39' E 016°22'0 0.0
2014-Aug-29 05:31N 58°39' E 016°22'0 0.0
2014-Aug-29 04:28N 58°39' E 016°22'0 0.0
2014-Aug-29 03:31N 58°39' E 016°22'0 0.0
2014-Aug-29 02:31N 58°39' E 016°22'0 0.0
2014-Aug-29 01:31N 58°39' E 016°22'0 0.0
2014-Aug-29 00:28N 58°39' E 016°22'0 0.0
2014-Aug-28 23:31N 58°39' E 016°22'0 0.0
2014-Aug-28 22:31N 58°39' E 016°22'0 0.0
2014-Aug-28 21:31N 58°39' E 016°22'0 0.0
2014-Aug-28 20:31N 58°39' E 016°22'0 0.0
2014-Aug-28 19:28N 58°39' E 016°22'0 0.0
2014-Aug-28 18:31N 58°39' E 016°22'0 0.0
2014-Aug-28 17:31N 58°39' E 016°22'0 0.0
2014-Aug-28 16:31N 58°39' E 016°22'0 0.0
2014-Aug-28 15:31N 58°39' E 016°22'0 0.1
2014-Aug-28 14:33N 58°39' E 016°23'6 6.2
2014-Aug-28 13:34N 58°38' E 016°34'9 8.6
2014-Aug-28 12:33N 58°37' E 016°51'9 8.5
2014-Aug-28 11:33N 58°38' E 017°07'1 0.0
2014-Aug-27 08:34N 58°37' E 017°05'1111.3
2014-Aug-27 07:34N 58°37' E 016°43'1110.8
2014-Aug-27 06:34N 58°39' E 016°23'6 2.5
2014-Aug-27 04:16N 58°36' E 016°13'0 0.0
2014-Aug-27 03:04N 58°36' E 016°13'0 0.0
2014-Aug-27 02:28N 58°36' E 016°13'0 0.0
2014-Aug-26 23:28N 58°36' E 016°13'0 0.0
2014-Aug-26 20:16N 58°36' E 016°13'0 0.0
2014-Aug-26 19:16N 58°36' E 016°13'0 0.1
2014-Aug-26 18:16N 58°36' E 016°13'0 0.0
2014-Aug-26 17:16N 58°36' E 016°13'0 0.0
2014-Aug-26 16:16N 58°36' E 016°13'0 0.0
2014-Aug-26 15:28N 58°36' E 016°13'0 0.0
2014-Aug-26 14:28N 58°36' E 016°13'0 0.0
2014-Aug-26 12:28N 58°36' E 016°13'0 0.0
2014-Aug-26 11:28N 58°36' E 016°13'0 0.0
2014-Aug-26 10:28N 58°36' E 016°13'0 0.0
2014-Aug-26 09:28N 58°36' E 016°13'0 0.0
2014-Aug-26 08:28N 58°36' E 016°13'0 0.0
2014-Aug-26 06:28N 58°36' E 016°13'0 0.0
2014-Aug-26 05:16N 58°36' E 016°13'0 0.0
2014-Aug-26 04:22N 58°36' E 016°13'0 0.0
2014-Aug-26 03:28N 58°36' E 016°13'0 0.0
2014-Aug-26 02:28N 58°36' E 016°13'0 0.0
2014-Aug-26 01:28N 58°36' E 016°13'0 0.0
2014-Aug-26 00:17N 58°36' E 016°13'0 0.0
2014-Aug-25 23:32N 58°36' E 016°13'3 3.5
2014-Aug-25 22:33N 58°38' E 016°18'10 9.8
2014-Aug-25 21:33N 58°38' E 016°37'1010.3
2014-Aug-25 20:33N 58°36' E 016°56'1010.3
2014-Aug-25 19:33N 58°37' E 017°16'79 2.6
2014-Aug-24 13:10N 57°23' E 018°08'7 8.8
2014-Aug-24 12:23N 57°29' E 018°01'72 8.1
2014-Aug-24 03:30N 58°37' E 017°16'8 8.8
2014-Aug-24 02:33N 58°37' E 016°60'9 9.0
2014-Aug-24 01:33N 58°38' E 016°43'9 9.1
2014-Aug-24 00:33N 58°39' E 016°25'3 0.1
2014-Aug-23 03:30N 58°38' E 016°20'0 0.0
2014-Aug-23 02:30N 58°38' E 016°20'0 0.0
2014-Aug-23 01:33N 58°38' E 016°20'0 0.4
2014-Aug-23 00:33N 58°38' E 016°20'9 8.7
2014-Aug-22 23:33N 58°38' E 016°37'1010.4
2014-Aug-22 22:33N 58°36' E 016°57'1010.2
2014-Aug-22 21:33N 58°37' E 017°16'61 2.1
2014-Aug-21 16:27N 57°36' E 017°25'1010.8
2014-Aug-21 15:33N 57°27' E 017°21'1110.6
2014-Aug-21 14:33N 57°16' E 017°17'1110.7
2014-Aug-21 13:33N 57°06' E 017°14'1110.6
2014-Aug-21 12:33N 56°55' E 017°09'90 9.9
2014-Aug-21 03:32N 55°42' E 015°38'1310.7
2014-Aug-21 02:17N 55°35' E 015°17'810.6
2014-Aug-21 01:32N 55°31' E 015°05'1110.7
2014-Aug-21 00:33N 55°26' E 014°49'1010.3
2014-Aug-20 23:33N 55°20' E 014°34'  

Dump ship's entire track history